sensor_id;sensor_type;location;lat;lon;timestamp;P1;durP1;ratioP1;P2;durP2;ratioP2
57233;SDS011;43090;52.604;13.318;2023-05-07T00:01:12;23.52;;;13.05;;
57233;SDS011;43090;52.604;13.318;2023-05-07T00:03:38;24.40;;;12.80;;
57233;SDS011;43090;52.604;13.318;2023-05-07T00:06:05;26.70;;;11.52;;
57233;SDS011;43090;52.604;13.318;2023-05-07T00:08:32;20.70;;;12.18;;
57233;SDS011;43090;52.604;13.318;2023-05-07T00:10:59;22.42;;;11.65;;
57233;SDS011;43090;52.604;13.318;2023-05-07T00:13:25;21.63;;;11.73;;
57233;SDS011;43090;52.604;13.318;2023-05-07T00:15:52;20.83;;;12.45;;
57233;SDS011;43090;52.604;13.318;2023-05-07T00:18:18;22.13;;;12.85;;
57233;SDS011;43090;52.604;13.318;2023-05-07T00:20:48;24.95;;;13.95;;
57233;SDS011;43090;52.604;13.318;2023-05-07T00:23:15;21.55;;;11.85;;
57233;SDS011;43090;52.604;13.318;2023-05-07T00:25:41;20.50;;;12.27;;
57233;SDS011;43090;52.604;13.318;2023-05-07T00:28:08;27.05;;;12.27;;
57233;SDS011;43090;52.604;13.318;2023-05-07T00:30:34;17.63;;;10.68;;
57233;SDS011;43090;52.604;13.318;2023-05-07T00:33:00;23.58;;;13.32;;
57233;SDS011;43090;52.604;13.318;2023-05-07T00:35:28;21.70;;;13.48;;
57233;SDS011;43090;52.604;13.318;2023-05-07T00:37:54;20.10;;;12.48;;
57233;SDS011;43090;52.604;13.318;2023-05-07T00:42:48;20.40;;;11.70;;
57233;SDS011;43090;52.604;13.318;2023-05-07T00:45:15;22.25;;;12.30;;
57233;SDS011;43090;52.604;13.318;2023-05-07T00:47:43;21.33;;;12.23;;
57233;SDS011;43090;52.604;13.318;2023-05-07T00:52:39;19.08;;;12.52;;
57233;SDS011;43090;52.604;13.318;2023-05-07T00:55:05;19.75;;;11.13;;
57233;SDS011;43090;52.604;13.318;2023-05-07T00:57:36;21.13;;;12.50;;
57233;SDS011;43090;52.604;13.318;2023-05-07T01:00:04;19.55;;;12.32;;
57233;SDS011;43090;52.604;13.318;2023-05-07T01:02:31;20.40;;;12.48;;
57233;SDS011;43090;52.604;13.318;2023-05-07T01:04:58;21.35;;;11.52;;
57233;SDS011;43090;52.604;13.318;2023-05-07T01:07:26;18.05;;;11.52;;
57233;SDS011;43090;52.604;13.318;2023-05-07T01:09:53;24.05;;;11.93;;
57233;SDS011;43090;52.604;13.318;2023-05-07T01:12:20;19.42;;;10.65;;
57233;SDS011;43090;52.604;13.318;2023-05-07T01:14:47;18.65;;;10.68;;
57233;SDS011;43090;52.604;13.318;2023-05-07T01:17:16;16.95;;;11.32;;
57233;SDS011;43090;52.604;13.318;2023-05-07T01:19:43;19.95;;;10.23;;
57233;SDS011;43090;52.604;13.318;2023-05-07T01:22:10;16.80;;;11.25;;
57233;SDS011;43090;52.604;13.318;2023-05-07T01:24:37;17.40;;;11.35;;
57233;SDS011;43090;52.604;13.318;2023-05-07T01:29:31;20.50;;;11.23;;
57233;SDS011;43090;52.604;13.318;2023-05-07T01:31:58;21.08;;;11.55;;
57233;SDS011;43090;52.604;13.318;2023-05-07T01:34:30;17.75;;;11.18;;
57233;SDS011;43090;52.604;13.318;2023-05-07T01:51:25;21.85;;;13.05;;
57233;SDS011;43090;52.604;13.318;2023-05-07T01:53:52;20.55;;;11.88;;
57233;SDS011;43090;52.604;13.318;2023-05-07T01:56:19;25.25;;;12.45;;
57233;SDS011;43090;52.604;13.318;2023-05-07T01:58:46;23.75;;;12.88;;
57233;SDS011;43090;52.604;13.318;2023-05-07T02:01:13;18.77;;;11.13;;
57233;SDS011;43090;52.604;13.318;2023-05-07T02:03:40;24.17;;;11.25;;
57233;SDS011;43090;52.604;13.318;2023-05-07T02:06:07;21.48;;;12.63;;
57233;SDS011;43090;52.604;13.318;2023-05-07T02:08:33;19.20;;;11.45;;
57233;SDS011;43090;52.604;13.318;2023-05-07T02:11:00;19.05;;;11.63;;
57233;SDS011;43090;52.604;13.318;2023-05-07T02:13:28;23.02;;;12.27;;
57233;SDS011;43090;52.604;13.318;2023-05-07T02:15:56;16.23;;;11.20;;
57233;SDS011;43090;52.604;13.318;2023-05-07T02:18:23;18.58;;;10.45;;
57233;SDS011;43090;52.604;13.318;2023-05-07T02:20:49;19.75;;;11.63;;
57233;SDS011;43090;52.604;13.318;2023-05-07T02:23:16;16.38;;;10.80;;
57233;SDS011;43090;52.604;13.318;2023-05-07T02:25:42;22.00;;;12.65;;
57233;SDS011;43090;52.604;13.318;2023-05-07T02:28:09;20.98;;;11.95;;
57233;SDS011;43090;52.604;13.318;2023-05-07T02:30:36;21.40;;;11.93;;
57233;SDS011;43090;52.604;13.318;2023-05-07T02:33:03;19.30;;;11.75;;
57233;SDS011;43090;52.604;13.318;2023-05-07T02:35:29;21.08;;;10.98;;
57233;SDS011;43090;52.604;13.318;2023-05-07T02:37:56;30.23;;;11.95;;
57233;SDS011;43090;52.604;13.318;2023-05-07T02:40:22;15.45;;;10.65;;
57233;SDS011;43090;52.604;13.318;2023-05-07T02:42:49;19.33;;;11.20;;
57233;SDS011;43090;52.604;13.318;2023-05-07T02:45:16;17.77;;;10.10;;
57233;SDS011;43090;52.604;13.318;2023-05-07T02:47:42;19.48;;;11.05;;
57233;SDS011;43090;52.604;13.318;2023-05-07T02:50:09;17.42;;;10.15;;
57233;SDS011;43090;52.604;13.318;2023-05-07T02:52:36;16.98;;;9.98;;
57233;SDS011;43090;52.604;13.318;2023-05-07T02:55:02;17.33;;;10.30;;
57233;SDS011;43090;52.604;13.318;2023-05-07T02:59:57;18.27;;;10.10;;
57233;SDS011;43090;52.604;13.318;2023-05-07T03:02:24;21.45;;;10.00;;
57233;SDS011;43090;52.604;13.318;2023-05-07T03:07:17;22.48;;;9.40;;
57233;SDS011;43090;52.604;13.318;2023-05-07T03:09:44;19.85;;;9.48;;
57233;SDS011;43090;52.604;13.318;2023-05-07T03:12:11;14.85;;;9.02;;
57233;SDS011;43090;52.604;13.318;2023-05-07T03:14:37;14.88;;;10.02;;
57233;SDS011;43090;52.604;13.318;2023-05-07T03:17:04;15.30;;;9.07;;
57233;SDS011;43090;52.604;13.318;2023-05-07T03:19:30;20.13;;;9.27;;
57233;SDS011;43090;52.604;13.318;2023-05-07T03:21:57;16.75;;;9.77;;
57233;SDS011;43090;52.604;13.318;2023-05-07T03:24:23;13.13;;;8.73;;
57233;SDS011;43090;52.604;13.318;2023-05-07T03:26:50;14.68;;;8.77;;
57233;SDS011;43090;52.604;13.318;2023-05-07T03:29:16;15.70;;;9.25;;
57233;SDS011;43090;52.604;13.318;2023-05-07T03:34:09;14.65;;;8.27;;
57233;SDS011;43090;52.604;13.318;2023-05-07T03:36:36;16.63;;;8.77;;
57233;SDS011;43090;52.604;13.318;2023-05-07T03:39:02;16.13;;;8.85;;
57233;SDS011;43090;52.604;13.318;2023-05-07T03:41:29;13.43;;;8.10;;
57233;SDS011;43090;52.604;13.318;2023-05-07T03:46:22;14.23;;;8.55;;
57233;SDS011;43090;52.604;13.318;2023-05-07T03:48:48;16.10;;;9.50;;
57233;SDS011;43090;52.604;13.318;2023-05-07T03:51:15;15.02;;;9.25;;
57233;SDS011;43090;52.604;13.318;2023-05-07T03:53:41;12.73;;;8.00;;
57233;SDS011;43090;52.604;13.318;2023-05-07T03:56:08;13.55;;;8.57;;
57233;SDS011;43090;52.604;13.318;2023-05-07T03:58:34;16.80;;;9.13;;
57233;SDS011;43090;52.604;13.318;2023-05-07T04:01:01;16.25;;;9.23;;
57233;SDS011;43090;52.604;13.318;2023-05-07T04:03:28;14.80;;;8.32;;
57233;SDS011;43090;52.604;13.318;2023-05-07T04:05:54;13.82;;;7.80;;
57233;SDS011;43090;52.604;13.318;2023-05-07T04:08:21;17.55;;;8.98;;
57233;SDS011;43090;52.604;13.318;2023-05-07T04:10:47;20.30;;;8.35;;
57233;SDS011;43090;52.604;13.318;2023-05-07T04:13:14;16.05;;;8.70;;
57233;SDS011;43090;52.604;13.318;2023-05-07T04:15:40;13.75;;;7.72;;
57233;SDS011;43090;52.604;13.318;2023-05-07T04:18:07;11.30;;;7.50;;
57233;SDS011;43090;52.604;13.318;2023-05-07T04:20:33;12.40;;;7.47;;
57233;SDS011;43090;52.604;13.318;2023-05-07T04:23:02;10.63;;;7.63;;
57233;SDS011;43090;52.604;13.318;2023-05-07T04:25:28;15.75;;;8.07;;
57233;SDS011;43090;52.604;13.318;2023-05-07T04:27:55;13.20;;;8.00;;
57233;SDS011;43090;52.604;13.318;2023-05-07T04:30:23;11.98;;;7.82;;
57233;SDS011;43090;52.604;13.318;2023-05-07T04:32:49;16.75;;;7.80;;
57233;SDS011;43090;52.604;13.318;2023-05-07T04:37:43;13.07;;;8.02;;
57233;SDS011;43090;52.604;13.318;2023-05-07T04:40:10;14.00;;;8.18;;
57233;SDS011;43090;52.604;13.318;2023-05-07T04:42:37;10.73;;;7.90;;
57233;SDS011;43090;52.604;13.318;2023-05-07T04:45:03;12.45;;;8.32;;
57233;SDS011;43090;52.604;13.318;2023-05-07T04:47:31;17.80;;;8.57;;
57233;SDS011;43090;52.604;13.318;2023-05-07T04:49:57;12.68;;;8.30;;
57233;SDS011;43090;52.604;13.318;2023-05-07T04:52:24;15.90;;;8.73;;
57233;SDS011;43090;52.604;13.318;2023-05-07T04:54:52;13.98;;;7.50;;
57233;SDS011;43090;52.604;13.318;2023-05-07T04:57:19;14.57;;;8.00;;
57233;SDS011;43090;52.604;13.318;2023-05-07T04:59:45;13.18;;;7.82;;
57233;SDS011;43090;52.604;13.318;2023-05-07T05:02:12;14.95;;;7.90;;
57233;SDS011;43090;52.604;13.318;2023-05-07T05:04:38;14.57;;;8.27;;
57233;SDS011;43090;52.604;13.318;2023-05-07T05:07:05;13.77;;;7.68;;
57233;SDS011;43090;52.604;13.318;2023-05-07T05:09:32;14.48;;;8.48;;
57233;SDS011;43090;52.604;13.318;2023-05-07T05:11:58;12.57;;;8.40;;
57233;SDS011;43090;52.604;13.318;2023-05-07T05:14:25;14.13;;;7.80;;
57233;SDS011;43090;52.604;13.318;2023-05-07T05:16:51;14.52;;;8.20;;
57233;SDS011;43090;52.604;13.318;2023-05-07T05:19:18;12.73;;;8.07;;
57233;SDS011;43090;52.604;13.318;2023-05-07T05:21:44;15.00;;;8.40;;
57233;SDS011;43090;52.604;13.318;2023-05-07T05:24:11;20.85;;;9.77;;
57233;SDS011;43090;52.604;13.318;2023-05-07T05:26:37;13.20;;;8.23;;
57233;SDS011;43090;52.604;13.318;2023-05-07T05:29:04;12.38;;;8.20;;
57233;SDS011;43090;52.604;13.318;2023-05-07T05:31:30;19.25;;;7.88;;
57233;SDS011;43090;52.604;13.318;2023-05-07T05:33:57;11.75;;;7.30;;
57233;SDS011;43090;52.604;13.318;2023-05-07T05:36:23;12.80;;;7.18;;
57233;SDS011;43090;52.604;13.318;2023-05-07T05:38:50;11.85;;;7.25;;
57233;SDS011;43090;52.604;13.318;2023-05-07T05:41:16;12.82;;;7.72;;
57233;SDS011;43090;52.604;13.318;2023-05-07T05:43:43;9.82;;;6.40;;
57233;SDS011;43090;52.604;13.318;2023-05-07T05:46:09;14.02;;;7.22;;
57233;SDS011;43090;52.604;13.318;2023-05-07T05:48:38;15.48;;;7.53;;
57233;SDS011;43090;52.604;13.318;2023-05-07T05:51:04;9.07;;;6.13;;
57233;SDS011;43090;52.604;13.318;2023-05-07T05:53:31;18.35;;;7.32;;
57233;SDS011;43090;52.604;13.318;2023-05-07T05:55:57;13.98;;;6.82;;
57233;SDS011;43090;52.604;13.318;2023-05-07T05:58:24;11.27;;;6.88;;
57233;SDS011;43090;52.604;13.318;2023-05-07T06:00:50;15.48;;;7.03;;
57233;SDS011;43090;52.604;13.318;2023-05-07T06:03:18;13.75;;;6.85;;
57233;SDS011;43090;52.604;13.318;2023-05-07T06:05:45;11.68;;;6.43;;
57233;SDS011;43090;52.604;13.318;2023-05-07T06:08:11;13.82;;;6.97;;
57233;SDS011;43090;52.604;13.318;2023-05-07T06:10:38;9.77;;;6.22;;
57233;SDS011;43090;52.604;13.318;2023-05-07T06:15:31;12.45;;;6.82;;
57233;SDS011;43090;52.604;13.318;2023-05-07T06:17:57;13.70;;;6.15;;
57233;SDS011;43090;52.604;13.318;2023-05-07T06:20:24;11.25;;;6.95;;
57233;SDS011;43090;52.604;13.318;2023-05-07T06:22:50;13.15;;;6.32;;
57233;SDS011;43090;52.604;13.318;2023-05-07T06:25:17;15.18;;;7.32;;
57233;SDS011;43090;52.604;13.318;2023-05-07T06:27:44;10.60;;;6.15;;
57233;SDS011;43090;52.604;13.318;2023-05-07T06:30:11;12.02;;;6.80;;
57233;SDS011;43090;52.604;13.318;2023-05-07T06:32:39;12.88;;;6.65;;
57233;SDS011;43090;52.604;13.318;2023-05-07T06:35:07;11.82;;;6.18;;
57233;SDS011;43090;52.604;13.318;2023-05-07T06:37:34;11.18;;;6.10;;
57233;SDS011;43090;52.604;13.318;2023-05-07T06:40:00;11.50;;;6.65;;
57233;SDS011;43090;52.604;13.318;2023-05-07T06:42:27;11.20;;;6.35;;
57233;SDS011;43090;52.604;13.318;2023-05-07T06:44:53;9.88;;;6.32;;
57233;SDS011;43090;52.604;13.318;2023-05-07T06:47:21;14.48;;;6.32;;
57233;SDS011;43090;52.604;13.318;2023-05-07T06:49:47;9.02;;;6.07;;
57233;SDS011;43090;52.604;13.318;2023-05-07T06:52:14;11.45;;;6.78;;
57233;SDS011;43090;52.604;13.318;2023-05-07T06:54:40;14.45;;;6.75;;
57233;SDS011;43090;52.604;13.318;2023-05-07T06:57:07;8.43;;;6.00;;
57233;SDS011;43090;52.604;13.318;2023-05-07T06:59:33;9.85;;;5.82;;
57233;SDS011;43090;52.604;13.318;2023-05-07T07:02:00;11.35;;;6.40;;
57233;SDS011;43090;52.604;13.318;2023-05-07T07:04:27;13.25;;;6.07;;
57233;SDS011;43090;52.604;13.318;2023-05-07T07:06:54;9.48;;;5.63;;
57233;SDS011;43090;52.604;13.318;2023-05-07T07:09:23;12.85;;;5.18;;
57233;SDS011;43090;52.604;13.318;2023-05-07T07:14:16;8.50;;;5.60;;
57233;SDS011;43090;52.604;13.318;2023-05-07T07:16:42;9.88;;;4.93;;
57233;SDS011;43090;52.604;13.318;2023-05-07T07:19:09;7.47;;;5.00;;
57233;SDS011;43090;52.604;13.318;2023-05-07T07:21:35;7.25;;;4.38;;
57233;SDS011;43090;52.604;13.318;2023-05-07T07:24:02;8.85;;;5.03;;
57233;SDS011;43090;52.604;13.318;2023-05-07T07:28:55;6.93;;;4.07;;
57233;SDS011;43090;52.604;13.318;2023-05-07T07:31:22;11.68;;;4.20;;
57233;SDS011;43090;52.604;13.318;2023-05-07T07:33:48;10.75;;;4.25;;
57233;SDS011;43090;52.604;13.318;2023-05-07T07:36:18;6.32;;;3.63;;
57233;SDS011;43090;52.604;13.318;2023-05-07T07:38:54;20.15;;;4.15;;
57233;SDS011;43090;52.604;13.318;2023-05-07T07:45:26;6.68;;;3.35;;
57233;SDS011;43090;52.604;13.318;2023-05-07T07:48:24;5.95;;;3.83;;
57233;SDS011;43090;52.604;13.318;2023-05-07T07:53:18;6.15;;;3.38;;
57233;SDS011;43090;52.604;13.318;2023-05-07T07:55:44;9.55;;;3.00;;
57233;SDS011;43090;52.604;13.318;2023-05-07T07:58:11;4.85;;;2.63;;
57233;SDS011;43090;52.604;13.318;2023-05-07T08:00:40;8.07;;;3.25;;
57233;SDS011;43090;52.604;13.318;2023-05-07T08:03:08;5.18;;;3.13;;
57233;SDS011;43090;52.604;13.318;2023-05-07T08:05:36;8.98;;;3.60;;
57233;SDS011;43090;52.604;13.318;2023-05-07T08:08:04;3.63;;;2.60;;
57233;SDS011;43090;52.604;13.318;2023-05-07T08:10:32;6.25;;;3.42;;
57233;SDS011;43090;52.604;13.318;2023-05-07T08:13:01;5.93;;;3.40;;
57233;SDS011;43090;52.604;13.318;2023-05-07T08:15:31;5.43;;;3.13;;
57233;SDS011;43090;52.604;13.318;2023-05-07T08:17:58;4.68;;;3.10;;
57233;SDS011;43090;52.604;13.318;2023-05-07T08:20:29;4.80;;;2.60;;
57233;SDS011;43090;52.604;13.318;2023-05-07T08:22:56;8.82;;;3.47;;
57233;SDS011;43090;52.604;13.318;2023-05-07T08:28:04;5.15;;;2.92;;
57233;SDS011;43090;52.604;13.318;2023-05-07T08:31:02;8.15;;;3.30;;
57233;SDS011;43090;52.604;13.318;2023-05-07T08:33:55;5.97;;;3.22;;
57233;SDS011;43090;52.604;13.318;2023-05-07T08:36:44;5.60;;;3.35;;
57233;SDS011;43090;52.604;13.318;2023-05-07T08:39:15;4.95;;;2.78;;
57233;SDS011;43090;52.604;13.318;2023-05-07T08:41:44;5.57;;;3.10;;
57233;SDS011;43090;52.604;13.318;2023-05-07T08:44:13;5.85;;;2.80;;
57233;SDS011;43090;52.604;13.318;2023-05-07T08:46:42;5.70;;;3.72;;
57233;SDS011;43090;52.604;13.318;2023-05-07T08:49:13;8.95;;;2.47;;
57233;SDS011;43090;52.604;13.318;2023-05-07T08:51:40;4.95;;;2.53;;
57233;SDS011;43090;52.604;13.318;2023-05-07T08:54:08;5.70;;;2.65;;
57233;SDS011;43090;52.604;13.318;2023-05-07T08:56:35;7.95;;;2.55;;
57233;SDS011;43090;52.604;13.318;2023-05-07T08:59:12;5.55;;;2.92;;
57233;SDS011;43090;52.604;13.318;2023-05-07T09:01:39;7.43;;;3.58;;
57233;SDS011;43090;52.604;13.318;2023-05-07T09:06:34;4.07;;;2.53;;
57233;SDS011;43090;52.604;13.318;2023-05-07T09:09:09;5.63;;;2.92;;
57233;SDS011;43090;52.604;13.318;2023-05-07T09:11:40;7.15;;;2.60;;
57233;SDS011;43090;52.604;13.318;2023-05-07T09:14:07;7.90;;;3.35;;
57233;SDS011;43090;52.604;13.318;2023-05-07T09:16:35;5.82;;;2.55;;
57233;SDS011;43090;52.604;13.318;2023-05-07T09:19:01;5.78;;;2.70;;
57233;SDS011;43090;52.604;13.318;2023-05-07T09:21:31;4.53;;;2.72;;
57233;SDS011;43090;52.604;13.318;2023-05-07T09:23:58;5.60;;;2.95;;
57233;SDS011;43090;52.604;13.318;2023-05-07T09:26:25;6.32;;;2.67;;
57233;SDS011;43090;52.604;13.318;2023-05-07T09:28:54;8.43;;;2.20;;
57233;SDS011;43090;52.604;13.318;2023-05-07T09:33:54;6.43;;;2.05;;
57233;SDS011;43090;52.604;13.318;2023-05-07T09:36:23;4.07;;;2.30;;
57233;SDS011;43090;52.604;13.318;2023-05-07T09:38:50;4.40;;;2.10;;
57233;SDS011;43090;52.604;13.318;2023-05-07T09:41:17;3.90;;;2.22;;
57233;SDS011;43090;52.604;13.318;2023-05-07T09:43:45;8.88;;;2.95;;
57233;SDS011;43090;52.604;13.318;2023-05-07T09:46:13;6.28;;;2.30;;
57233;SDS011;43090;52.604;13.318;2023-05-07T09:48:41;7.18;;;2.67;;
57233;SDS011;43090;52.604;13.318;2023-05-07T09:51:24;4.35;;;2.60;;
57233;SDS011;43090;52.604;13.318;2023-05-07T09:53:54;9.65;;;2.78;;
57233;SDS011;43090;52.604;13.318;2023-05-07T09:56:23;4.75;;;2.40;;
57233;SDS011;43090;52.604;13.318;2023-05-07T09:58:52;3.60;;;2.17;;
57233;SDS011;43090;52.604;13.318;2023-05-07T10:01:22;5.07;;;2.40;;
57233;SDS011;43090;52.604;13.318;2023-05-07T10:03:51;4.38;;;2.03;;
57233;SDS011;43090;52.604;13.318;2023-05-07T10:06:19;4.65;;;2.20;;
57233;SDS011;43090;52.604;13.318;2023-05-07T10:08:46;5.82;;;2.63;;
57233;SDS011;43090;52.604;13.318;2023-05-07T10:11:14;7.25;;;2.47;;
57233;SDS011;43090;52.604;13.318;2023-05-07T10:13:44;5.82;;;2.10;;
57233;SDS011;43090;52.604;13.318;2023-05-07T10:17:13;5.13;;;2.63;;
57233;SDS011;43090;52.604;13.318;2023-05-07T10:20:04;4.10;;;2.05;;
57233;SDS011;43090;52.604;13.318;2023-05-07T10:26:27;5.65;;;1.98;;
57233;SDS011;43090;52.604;13.318;2023-05-07T10:28:59;3.03;;;2.05;;
57233;SDS011;43090;52.604;13.318;2023-05-07T10:31:51;3.45;;;1.83;;
57233;SDS011;43090;52.604;13.318;2023-05-07T10:34:26;6.15;;;1.98;;
57233;SDS011;43090;52.604;13.318;2023-05-07T10:36:56;4.82;;;2.10;;
57233;SDS011;43090;52.604;13.318;2023-05-07T10:39:23;23.15;;;4.43;;
57233;SDS011;43090;52.604;13.318;2023-05-07T10:41:50;11.35;;;2.88;;
57233;SDS011;43090;52.604;13.318;2023-05-07T10:47:07;4.97;;;2.10;;
57233;SDS011;43090;52.604;13.318;2023-05-07T10:50:21;3.45;;;2.00;;
57233;SDS011;43090;52.604;13.318;2023-05-07T10:52:32;13.15;;;2.35;;
57233;SDS011;43090;52.604;13.318;2023-05-07T10:57:51;3.80;;;2.05;;
57233;SDS011;43090;52.604;13.318;2023-05-07T11:03:04;66.97;;;8.57;;
57233;SDS011;43090;52.604;13.318;2023-05-07T11:05:33;6.22;;;1.95;;
57233;SDS011;43090;52.604;13.318;2023-05-07T11:08:03;3.35;;;1.92;;
57233;SDS011;43090;52.604;13.318;2023-05-07T11:16:26;3.33;;;1.83;;
57233;SDS011;43090;52.604;13.318;2023-05-07T11:18:54;2.75;;;1.48;;
57233;SDS011;43090;52.604;13.318;2023-05-07T11:21:38;3.53;;;2.00;;
57233;SDS011;43090;52.604;13.318;2023-05-07T11:24:09;2.85;;;1.58;;
57233;SDS011;43090;52.604;13.318;2023-05-07T11:26:44;3.63;;;1.58;;
57233;SDS011;43090;52.604;13.318;2023-05-07T11:29:13;4.03;;;1.90;;
57233;SDS011;43090;52.604;13.318;2023-05-07T11:31:49;5.03;;;1.77;;
57233;SDS011;43090;52.604;13.318;2023-05-07T11:34:22;4.80;;;1.95;;
57233;SDS011;43090;52.604;13.318;2023-05-07T11:36:50;3.40;;;1.95;;
57233;SDS011;43090;52.604;13.318;2023-05-07T11:39:25;2.92;;;1.92;;
57233;SDS011;43090;52.604;13.318;2023-05-07T11:41:51;9.38;;;2.15;;
57233;SDS011;43090;52.604;13.318;2023-05-07T11:44:18;3.55;;;1.58;;
57233;SDS011;43090;52.604;13.318;2023-05-07T11:46:53;2.75;;;1.00;;
57233;SDS011;43090;52.604;13.318;2023-05-07T11:49:19;2.78;;;1.70;;
57233;SDS011;43090;52.604;13.318;2023-05-07T11:51:46;4.82;;;1.90;;
57233;SDS011;43090;52.604;13.318;2023-05-07T11:56:41;2.67;;;2.00;;
57233;SDS011;43090;52.604;13.318;2023-05-07T11:59:07;2.85;;;1.73;;
57233;SDS011;43090;52.604;13.318;2023-05-07T12:01:35;2.88;;;1.50;;
57233;SDS011;43090;52.604;13.318;2023-05-07T12:04:02;6.55;;;1.88;;
57233;SDS011;43090;52.604;13.318;2023-05-07T12:06:30;3.42;;;1.88;;
57233;SDS011;43090;52.604;13.318;2023-05-07T12:08:57;4.55;;;1.70;;
57233;SDS011;43090;52.604;13.318;2023-05-07T12:11:24;3.65;;;1.73;;
57233;SDS011;43090;52.604;13.318;2023-05-07T12:13:53;2.80;;;1.75;;
57233;SDS011;43090;52.604;13.318;2023-05-07T12:16:25;2.53;;;1.48;;
57233;SDS011;43090;52.604;13.318;2023-05-07T12:18:52;4.22;;;1.77;;
57233;SDS011;43090;52.604;13.318;2023-05-07T12:21:21;3.47;;;1.45;;
57233;SDS011;43090;52.604;13.318;2023-05-07T12:23:48;3.00;;;1.67;;
57233;SDS011;43090;52.604;13.318;2023-05-07T12:26:15;4.13;;;2.08;;
57233;SDS011;43090;52.604;13.318;2023-05-07T12:28:41;4.45;;;1.50;;
57233;SDS011;43090;52.604;13.318;2023-05-07T12:31:07;3.17;;;1.58;;
57233;SDS011;43090;52.604;13.318;2023-05-07T12:33:34;6.47;;;1.80;;
57233;SDS011;43090;52.604;13.318;2023-05-07T12:36:02;2.85;;;1.55;;
57233;SDS011;43090;52.604;13.318;2023-05-07T12:38:34;7.45;;;1.73;;
57233;SDS011;43090;52.604;13.318;2023-05-07T12:41:02;6.30;;;1.90;;
57233;SDS011;43090;52.604;13.318;2023-05-07T12:43:29;1.70;;;1.42;;
57233;SDS011;43090;52.604;13.318;2023-05-07T12:45:57;2.38;;;1.25;;
57233;SDS011;43090;52.604;13.318;2023-05-07T12:48:25;5.07;;;1.65;;
57233;SDS011;43090;52.604;13.318;2023-05-07T12:50:56;7.00;;;1.92;;
57233;SDS011;43090;52.604;13.318;2023-05-07T12:53:24;1.55;;;1.17;;
57233;SDS011;43090;52.604;13.318;2023-05-07T12:55:53;5.93;;;1.30;;
57233;SDS011;43090;52.604;13.318;2023-05-07T12:58:29;3.25;;;1.77;;
57233;SDS011;43090;52.604;13.318;2023-05-07T13:00:58;3.13;;;1.55;;
57233;SDS011;43090;52.604;13.318;2023-05-07T13:03:29;3.92;;;2.10;;
57233;SDS011;43090;52.604;13.318;2023-05-07T13:05:58;7.75;;;1.50;;
57233;SDS011;43090;52.604;13.318;2023-05-07T13:11:13;2.83;;;1.42;;
57233;SDS011;43090;52.604;13.318;2023-05-07T13:13:40;5.70;;;1.85;;
57233;SDS011;43090;52.604;13.318;2023-05-07T13:16:08;2.92;;;1.50;;
57233;SDS011;43090;52.604;13.318;2023-05-07T13:18:37;4.07;;;1.67;;
57233;SDS011;43090;52.604;13.318;2023-05-07T13:21:05;4.93;;;1.55;;
57233;SDS011;43090;52.604;13.318;2023-05-07T13:25:58;2.53;;;1.05;;
57233;SDS011;43090;52.604;13.318;2023-05-07T13:28:26;4.97;;;1.50;;
57233;SDS011;43090;52.604;13.318;2023-05-07T13:30:53;3.55;;;1.75;;
57233;SDS011;43090;52.604;13.318;2023-05-07T13:33:21;6.20;;;1.92;;
57233;SDS011;43090;52.604;13.318;2023-05-07T13:35:47;2.92;;;1.52;;
57233;SDS011;43090;52.604;13.318;2023-05-07T13:38:14;2.85;;;1.60;;
57233;SDS011;43090;52.604;13.318;2023-05-07T13:40:42;5.50;;;1.17;;
57233;SDS011;43090;52.604;13.318;2023-05-07T13:43:08;2.38;;;1.52;;
57233;SDS011;43090;52.604;13.318;2023-05-07T13:45:35;1.90;;;1.33;;
57233;SDS011;43090;52.604;13.318;2023-05-07T13:48:01;16.67;;;1.88;;
57233;SDS011;43090;52.604;13.318;2023-05-07T13:50:28;2.97;;;1.50;;
57233;SDS011;43090;52.604;13.318;2023-05-07T13:52:56;2.55;;;1.40;;
57233;SDS011;43090;52.604;13.318;2023-05-07T13:55:23;2.63;;;1.45;;
57233;SDS011;43090;52.604;13.318;2023-05-07T13:57:56;5.05;;;2.17;;
57233;SDS011;43090;52.604;13.318;2023-05-07T14:00:25;4.85;;;1.63;;
57233;SDS011;43090;52.604;13.318;2023-05-07T14:02:52;2.78;;;1.67;;
57233;SDS011;43090;52.604;13.318;2023-05-07T14:05:19;3.65;;;1.88;;
57233;SDS011;43090;52.604;13.318;2023-05-07T14:07:46;4.07;;;1.63;;
57233;SDS011;43090;52.604;13.318;2023-05-07T14:10:13;3.90;;;1.67;;
57233;SDS011;43090;52.604;13.318;2023-05-07T14:12:40;3.95;;;1.38;;
57233;SDS011;43090;52.604;13.318;2023-05-07T14:15:07;1.85;;;1.38;;
57233;SDS011;43090;52.604;13.318;2023-05-07T14:17:34;4.10;;;1.85;;
57233;SDS011;43090;52.604;13.318;2023-05-07T14:20:01;3.08;;;1.30;;
57233;SDS011;43090;52.604;13.318;2023-05-07T14:24:54;1.80;;;1.15;;
57233;SDS011;43090;52.604;13.318;2023-05-07T14:27:32;5.40;;;1.50;;
57233;SDS011;43090;52.604;13.318;2023-05-07T14:32:25;5.05;;;1.15;;
57233;SDS011;43090;52.604;13.318;2023-05-07T14:34:52;3.78;;;1.83;;
57233;SDS011;43090;52.604;13.318;2023-05-07T14:37:18;2.28;;;1.40;;
57233;SDS011;43090;52.604;13.318;2023-05-07T14:39:46;2.83;;;1.50;;
57233;SDS011;43090;52.604;13.318;2023-05-07T14:42:16;2.88;;;1.92;;
57233;SDS011;43090;52.604;13.318;2023-05-07T14:44:43;4.15;;;1.45;;
57233;SDS011;43090;52.604;13.318;2023-05-07T14:47:12;2.50;;;1.60;;
57233;SDS011;43090;52.604;13.318;2023-05-07T14:49:39;2.88;;;1.58;;
57233;SDS011;43090;52.604;13.318;2023-05-07T14:52:07;4.72;;;1.67;;
57233;SDS011;43090;52.604;13.318;2023-05-07T14:54:36;2.45;;;1.40;;
57233;SDS011;43090;52.604;13.318;2023-05-07T14:57:05;2.22;;;1.35;;
57233;SDS011;43090;52.604;13.318;2023-05-07T14:59:33;7.55;;;1.70;;
57233;SDS011;43090;52.604;13.318;2023-05-07T15:04:30;3.67;;;1.40;;
57233;SDS011;43090;52.604;13.318;2023-05-07T15:06:57;5.35;;;1.20;;
57233;SDS011;43090;52.604;13.318;2023-05-07T15:09:23;3.97;;;1.83;;
57233;SDS011;43090;52.604;13.318;2023-05-07T15:11:50;3.65;;;1.20;;
57233;SDS011;43090;52.604;13.318;2023-05-07T15:14:16;4.00;;;1.63;;
57233;SDS011;43090;52.604;13.318;2023-05-07T15:16:43;2.92;;;1.40;;
57233;SDS011;43090;52.604;13.318;2023-05-07T15:21:36;8.85;;;1.50;;
57233;SDS011;43090;52.604;13.318;2023-05-07T15:24:03;3.03;;;1.23;;
57233;SDS011;43090;52.604;13.318;2023-05-07T15:26:29;4.88;;;1.20;;
57233;SDS011;43090;52.604;13.318;2023-05-07T15:31:23;3.60;;;1.40;;
57233;SDS011;43090;52.604;13.318;2023-05-07T15:33:51;1.88;;;1.10;;
57233;SDS011;43090;52.604;13.318;2023-05-07T15:36:19;3.38;;;1.38;;
57233;SDS011;43090;52.604;13.318;2023-05-07T15:38:46;2.50;;;1.35;;
57233;SDS011;43090;52.604;13.318;2023-05-07T15:41:13;2.47;;;1.50;;
57233;SDS011;43090;52.604;13.318;2023-05-07T15:43:43;4.50;;;1.20;;
57233;SDS011;43090;52.604;13.318;2023-05-07T15:46:12;3.50;;;1.27;;
57233;SDS011;43090;52.604;13.318;2023-05-07T15:48:38;1.42;;;0.90;;
57233;SDS011;43090;52.604;13.318;2023-05-07T15:51:05;2.78;;;1.25;;
57233;SDS011;43090;52.604;13.318;2023-05-07T15:53:33;2.47;;;1.70;;
57233;SDS011;43090;52.604;13.318;2023-05-07T15:56:00;3.38;;;1.15;;
57233;SDS011;43090;52.604;13.318;2023-05-07T15:58:27;5.82;;;1.20;;
57233;SDS011;43090;52.604;13.318;2023-05-07T16:00:53;4.20;;;1.50;;
57233;SDS011;43090;52.604;13.318;2023-05-07T16:03:21;4.10;;;1.25;;
57233;SDS011;43090;52.604;13.318;2023-05-07T16:05:48;3.30;;;1.48;;